• Join FlightAware (Why Join?)
  • Login
  • US Flag 
09:01AM EDT


 

Airport Tracker/Info


-or-


 

Live Flight TrackerFlight Track Log ✈ BER7023 ✈ 18-Oct-2013 ✈ KLAX - EDDT / TXL

Flight Track Log - Related Links

Times and Time Zones

All times are in EDT time to prevent confusion due to time zone crossing. See the BER7023 flight status page for this flight to view local times or setup timezone preferences in your user account.

Time Position Orientation Groundspeed Altitude Reporting Facility
EDT Latitude Longitude Course Direction KTS MPH feet Rate Location/Type
05:53PM 33.9350 -118.4250 262° West 164 189 1,000  Level FlightAware
05:53PM 33.9330 -118.4450 263° West 168 193 1,300 720 Climbing FlightAware
05:54PM 33.9300 -118.4630 259° West 203 234 1,500 720 Climbing FlightAware
05:54PM 33.9270 -118.4700 243° Southwest 209 241 1,600 360 Climbing FlightAware
05:54PM 33.9220 -118.4770 229° Southwest 222 255 1,600 480 Level FlightAware
05:54PM 33.9050 -118.4860 204° Southwest 241 277 1,800 1,200 Climbing FlightAware
05:54PM 33.8870 -118.4950 203° Southwest 258 297 2,200 1,740 Climbing FlightAware
05:55PM 33.8680 -118.5040 201° Southwest 263 303 2,800 2,100 Climbing FlightAware
05:55PM 33.8400 -118.5180 203° Southwest 267 307 3,700 2,280 Climbing FlightAware
05:55PM 33.8180 -118.5300 204° Southwest 273 314 4,500 2,340 Climbing FlightAware
05:56PM 33.7950 -118.5420 203° Southwest 275 316 5,200 1,920 Climbing FlightAware
05:56PM 33.7790 -118.5450 189° South 276 318 5,600 2,160 Climbing FlightAware
05:56PM 33.7530 -118.5380 167° South 276 318 6,500 2,580 Climbing FlightAware
05:57PM 33.7380 -118.5320 162° South 279 321 6,900 1,860 Climbing FlightAware
05:57PM 33.7290 -118.5250 147° Southeast 280 322 7,100 1,620 Climbing FlightAware
05:57PM 33.7220 -118.5150 130° Southeast 279 321 7,400 2,220 Climbing FlightAware
05:57PM 33.7050 -118.4860 125° Southeast 282 325 8,300 2,040 Climbing FlightAware
05:58PM 33.6910 -118.4570 120° Southeast 291 335 8,900 1,980 Climbing FlightAware
05:58PM 33.6860 -118.4340 105° East 291 335 9,500 1,920 Climbing FlightAware
05:58PM 33.6740 -118.3790 105° East 301 346 10,500 1,380 Climbing FlightAware
05:59PM 33.6680 -118.3350 99° East 323 372 10,900 1,260 Climbing FlightAware
05:59PM 33.6770 -118.3030 71° East 327 376 11,500 1,920 Climbing FlightAware
06:00PM 33.7010 -118.2480 62° Northeast 330 380 12,700 2,100 Climbing FlightAware
06:00PM 33.7270 -118.1870 63° Northeast 335 386 14,000 1,980 Climbing FlightAware
06:01PM 33.7540 -118.1240 63° Northeast 338 389 15,200 1,320 Climbing FlightAware
06:02PM 33.7770 -118.0700 63° Northeast 359 413 15,600 780 Climbing FlightAware
06:02PM 33.7940 -118.0450 51° Northeast 371 427 15,800 720 Climbing FlightAware
06:02PM 33.8400 -118.0030 37° Northeast 391 450 16,200 1,080 Climbing FlightAware
06:03PM 33.8940 -117.9540 37° Northeast 399 459 17,100 1,620 Climbing FlightAware
06:03PM 33.9370 -117.9160 36° Northeast 400 460 18,000 1,440 Climbing FlightAware
06:04PM 34.0080 -117.8510 37° Northeast 414 476 19,000 1,260 Climbing FlightAware
06:05PM 34.0650 -117.7990 37° Northeast 419 482 19,800 1,320 Climbing FlightAware
06:05PM 34.1150 -117.7430 43° Northeast 424 488 20,600 1,380 Climbing FlightAware
06:06PM 34.1600 -117.6820 48° Northeast 427 491 21,400 1,440 Climbing FlightAware
06:07PM 34.2080 -117.6170 48° Northeast 430 495 22,300 1,320 Climbing FlightAware
06:07PM 34.2520 -117.5570 48° Northeast 434 499 23,000 1,200 Climbing FlightAware
06:08PM 34.2943 -117.4995 48° Northeast 439 505 23,700 960 Climbing FlightAware ADS-B
06:08PM 34.3480 -117.4260 48° Northeast 444 511 24,200 780 Climbing FlightAware
06:09PM 34.3814 -117.3806 48° Northeast 448 516 24,600 1,080 Climbing FlightAware ADS-B
06:10PM 34.4490 -117.2880 48° Northeast 453 521 25,500 1,080 Climbing FlightAware
06:10PM 34.4920 -117.2290 49° Northeast 455 524 26,000 840 Climbing FlightAware
06:10PM 34.4896 -117.2326 231° Southwest 456 525 26,000 1,020 Level FlightAware ADS-B
06:11PM 34.5420 -117.1610 48° Northeast 458 527 26,600 900 Climbing FlightAware
06:11PM 34.6080 -117.0700 49° Northeast 461 531 27,300 840 Climbing FlightAware
06:12PM 34.6660 -116.9890 49° Northeast 464 534 27,900 780 Climbing FlightAware
06:13PM 34.7110 -116.9270 49° Northeast 469 540 28,200 480 Climbing FlightAware
06:13PM 34.7590 -116.8610 48° Northeast 474 545 28,500 660 Climbing FlightAware
06:14PM 34.8150 -116.7830 49° Northeast 476 548 29,000 780 Climbing FlightAware
06:14PM 34.8630 -116.7170 48° Northeast 479 551 29,400 840 Climbing FlightAware
06:15PM 34.9120 -116.6480 49° Northeast 475 547 30,000 1,080 Climbing FlightAware
06:16PM 34.9660 -116.5740 48° Northeast 471 542 30,700 780 Climbing FlightAware
06:16PM 35.0210 -116.5050 46° Northeast 471 542 31,000 420 Climbing FlightAware
06:17PM 35.0670 -116.4480 45° Northeast 475 547 31,200 600 Climbing FlightAware
06:17PM 35.1280 -116.3720 46° Northeast 475 547 31,700 600 Climbing FlightAware
06:18PM 35.1810 -116.3060 45° Northeast 478 550 32,000 660 Climbing FlightAware
06:18PM 35.2300 -116.2430 46° Northeast 474 545 32,500 780 Climbing FlightAware
06:19PM 35.2850 -116.1740 46° Northeast 473 544 32,900 480 Climbing FlightAware
06:20PM 35.3350 -116.1110 46° Northeast 477 549 33,100 420 Climbing FlightAware
06:20PM 35.3940 -116.0370 46° Northeast 480 552 33,400 420 Climbing FlightAware
06:21PM 35.4430 -115.9750 46° Northeast 482 555 33,600 480 Climbing FlightAware
06:21PM 35.5030 -115.8990 46° Northeast 482 555 34,000 600 Climbing FlightAware
06:22PM 35.5610 -115.8250 46° Northeast 481 554 34,400 660 Climbing FlightAware
06:23PM 35.6110 -115.7620 46° Northeast 479 551 34,800 720 Climbing FlightAware
06:23PM 35.6640 -115.6950 46° Northeast 475 547 35,200 660 Climbing FlightAware
06:24PM 35.7160 -115.6280 46° Northeast 473 544 35,600 420 Climbing FlightAware
06:24PM 35.7670 -115.5630 46° Northeast 478 550 35,700 420 Climbing FlightAware
06:25PM 35.8230 -115.4910 46° Northeast 474 545 36,100 540 Climbing FlightAware
06:25PM 35.8810 -115.4160 46° Northeast 473 544 36,400 480 Climbing FlightAware
06:26PM 35.9330 -115.3490 46° Northeast 471 542 36,700 300 Climbing FlightAware
06:27PM 35.9830 -115.2850 46° Northeast 473 544 36,800 120 Climbing FlightAware
06:27PM 36.0360 -115.2160 46° Northeast 476 548 36,900 120 Climbing FlightAware
06:28PM 36.0930 -115.1420 46° Northeast 477 549 37,000 60 Climbing FlightAware
06:28PM 36.1410 -115.0820 45° Northeast 476 548 37,000  Level FlightAware
06:29PM 36.2020 -115.0050 46° Northeast 477 549 37,000  Level FlightAware
06:30PM 36.2490 -114.9450 46° Northeast 478 550 37,000  Level FlightAware
06:30PM 36.3040 -114.8750 46° Northeast 475 547 37,000  Level FlightAware
06:31PM 36.3610 -114.8030 45° Northeast 476 548 37,000  Level FlightAware
06:31PM 36.4100 -114.7390 46° Northeast 478 550 37,000  Level FlightAware
06:32PM 36.4680 -114.6630 46° Northeast 478 550 37,000  Level FlightAware
06:32PM 36.5200 -114.5950 46° Northeast 476 548 37,000  Level FlightAware
06:33PM 36.5720 -114.5270 46° Northeast 476 548 37,000  Level FlightAware
06:34PM 36.6270 -114.4550 46° Northeast 474 545 37,000  Level FlightAware
06:34PM 36.6760 -114.3900 47° Northeast 474 545 37,000  Level FlightAware
06:35PM 36.7330 -114.3180 45° Northeast 474 545 37,000  Level FlightAware
06:35PM 36.7950 -114.2530 40° Northeast 472 543 37,000  Level FlightAware
06:36PM 36.8550 -114.2040 33° Northeast 469 540 37,000  Level FlightAware
06:37PM 36.9230 -114.1530 31° Northeast 470 541 37,000  Level FlightAware
06:37PM 36.9830 -114.1080 31° Northeast 471 542 37,000  Level FlightAware
06:38PM 37.0510 -114.0550 32° Northeast 468 539 37,000  Level FlightAware
06:38PM 37.1100 -114.0090 32° Northeast 469 540 37,000  Level FlightAware
06:39PM 37.1790 -113.9550 32° Northeast 471 542 37,000  Level FlightAware
06:39PM 37.2430 -113.9050 32° Northeast 471 542 37,000  Level FlightAware
06:40PM 37.3130 -113.8510 32° Northeast 470 541 37,000  Level FlightAware
06:41PM 37.3750 -113.8020 32° Northeast 470 541 37,000  Level FlightAware
06:41PM 37.4350 -113.7540 32° Northeast 470 541 37,000  Level FlightAware
06:42PM 37.5020 -113.7010 32° Northeast 471 542 37,000  Level FlightAware
06:42PM 37.5660 -113.6510 32° Northeast 468 539 37,000  Level FlightAware
06:43PM 37.6280 -113.6020 32° Northeast 467 537 37,000  Level FlightAware
06:44PM 37.6810 -113.5600 32° Northeast 467 537 37,000  Level FlightAware
06:44PM 37.7370 -113.5160 32° Northeast 467 537 37,000  Level FlightAware
06:45PM 37.7930 -113.4710 32° Northeast 467 537 37,000  Level FlightAware
06:45PM 37.8490 -113.4270 32° Northeast 467 537 37,000  Level FlightAware
06:46PM 37.9050 -113.3830 32° Northeast 467 537 37,000  Level FlightAware
06:47PM 38.0212 -113.2880 33° Northeast 454 522 37,000  Level FlightAware ADS-B (KPVU)
06:47PM 38.0190 -113.2930 241° Southwest 467 537 37,000  Level FlightAware
06:48PM 38.0750 -113.2480 32° Northeast 467 537 37,000  Level FlightAware
06:48PM 38.1310 -113.2040 32° Northeast 467 537 37,000  Level FlightAware
06:49PM 38.1870 -113.1590 32° Northeast 467 537 37,000  Level FlightAware
06:50PM 38.3346 -113.0335 34° Northeast 457 526 37,000  Level FlightAware ADS-B (KPVU)
06:50PM 38.4000 -112.9700 37° Northeast 450 518 37,000  Level FlightAware
06:51PM 38.4682 -112.8868 44° Northeast 458 527 37,000  Level FlightAware ADS-B (KPVU)
06:52PM 38.5358 -112.8090 42° Northeast 459 528 37,000  Level FlightAware ADS-B
06:52PM 38.5691 -112.7704 42° Northeast 460 529 37,000  Level FlightAware ADS-B (KPVU)
06:52PM 38.5845 -112.7520 43° Northeast 461 531 37,000  Level FlightAware ADS-B
06:53PM 38.6354 -112.6929 42° Northeast 460 529 37,000  Level FlightAware ADS-B (KPVU)
06:53PM 38.6404 -112.6870 43° Northeast 461 531 37,000  Level FlightAware ADS-B
06:53PM 38.6871 -112.6330 42° Northeast 461 531 37,000  Level FlightAware ADS-B
06:54PM 38.7172 -112.5972 43° Northeast 462 532 37,000  Level FlightAware ADS-B (KPVU)
06:54PM 38.7446 -112.5650 42° Northeast 462 532 37,000  Level FlightAware ADS-B
06:54PM 38.7923 -112.5090 42° Northeast 462 532 37,000  Level FlightAware ADS-B
06:55PM 38.8664 -112.4220 42° Northeast 464 534 37,000  Level FlightAware ADS-B
06:56PM 38.9019 -112.3796 43° Northeast 467 537 37,000  Level FlightAware ADS-B (KPVU)
06:56PM 38.9233 -112.3540 43° Northeast 467 537 37,000  Level FlightAware ADS-B
06:56PM 38.9894 -112.2760 43° Northeast 466 536 37,000  Level FlightAware ADS-B
06:57PM 38.9991 -112.2644 43° Northeast 465 535 37,000  Level FlightAware ADS-B (KPVU)
06:57PM 39.0375 -112.2190 43° Northeast 465 535 37,000  Level FlightAware ADS-B
06:57PM 39.0855 -112.1620 43° Northeast 465 535 37,000  Level FlightAware ADS-B
06:58PM 39.0966 -112.1485 43° Northeast 464 534 37,000  Level FlightAware ADS-B (KPVU)
06:58PM 39.1346 -112.1030 43° Northeast 464 534 37,000  Level FlightAware ADS-B
06:58PM 39.1591 -112.0740 43° Northeast 466 536 37,000  Level FlightAware ADS-B (KPVU)
06:58PM 39.1846 -112.0440 42° Northeast 466 536 37,000  Level FlightAware ADS-B
06:59PM 39.2300 -111.9892 43° Northeast 465 535 37,000  Level FlightAware ADS-B (KPVU)
06:59PM 39.2377 -111.9800 43° Northeast 465 535 37,000  Level FlightAware ADS-B
07:00PM 39.2848 -111.9240 43° Northeast 461 531 37,000  Level FlightAware ADS-B
07:00PM 39.2925 -111.9143 44° Northeast 461 531 37,000  Level FlightAware ADS-B (KPVU)
07:00PM 39.3342 -111.8640 43° Northeast 459 528 37,000  Level FlightAware ADS-B
07:00PM 39.3399 -111.8572 43° Northeast 459 528 37,000  Level FlightAware ADS-B (KPVU)
07:01PM 39.3846 -111.8030 43° Northeast 460 529 37,000  Level FlightAware ADS-B
07:01PM 39.4135 -111.7686 43° Northeast 460 529 37,000  Level FlightAware ADS-B (KPVU)
07:01PM 39.4304 -111.7480 43° Northeast 460 529 37,000  Level FlightAware ADS-B
07:02PM 39.4789 -111.6900 43° Northeast 458 527 37,000  Level FlightAware ADS-B
07:02PM 39.5079 -111.6544 43° Northeast 458 527 37,000  Level FlightAware ADS-B (KPVU)
07:02PM 39.5257 -111.6330 43° Northeast 458 527 37,000  Level FlightAware ADS-B
07:03PM 39.5732 -111.5750 43° Northeast 458 527 37,000  Level FlightAware ADS-B
07:03PM 39.5877 -111.5576 43° Northeast 459 528 37,000  Level FlightAware ADS-B (KPVU)
07:03PM 39.6454 -111.4870 43° Northeast 459 528 37,000  Level FlightAware ADS-B
07:04PM 39.6829 -111.4416 43° Northeast 458 527 37,000  Level FlightAware ADS-B (KPVU)
07:05PM 39.7479 -111.3620 43° Northeast 458 527 37,000  Level FlightAware ADS-B
07:05PM 39.7546 -111.3540 43° Northeast 459 528 37,000  Level FlightAware ADS-B (KMTJ)
07:05PM 39.7952 -111.3040 43° Northeast 461 531 37,000  Level FlightAware ADS-B
07:05PM 39.8031 -111.2946 42° Northeast 461 531 37,000  Level FlightAware ADS-B (KMTJ)
07:06PM 39.8503 -111.2370 43° Northeast 461 531 37,000  Level FlightAware ADS-B
07:06PM 39.8567 -111.2289 44° Northeast 461 531 37,000  Level FlightAware ADS-B (KMTJ)
07:06PM 39.9063 -111.1677 43° Northeast 459 528 37,000  Level FlightAware ADS-B (KPVU)
07:06PM 39.9102 -111.1630 43° Northeast 459 528 37,000  Level FlightAware ADS-B
07:07PM 39.9581 -111.1040 43° Northeast 458 527 37,000  Level FlightAware ADS-B
07:07PM 39.9601 -111.1014 46° Northeast 458 527 37,000  Level FlightAware ADS-B (KMTJ)
07:07PM 40.0052 -111.0460 43° Northeast 456 525 37,000  Level FlightAware ADS-B
07:07PM 40.0062 -111.0444 52° Northeast 456 525 37,000  Level FlightAware ADS-B (KMTJ)
07:08PM 40.0517 -110.9880 43° Northeast 455 524 37,000  Level FlightAware ADS-B
07:08PM 40.0964 -110.9326 43° Northeast 453 521 37,000  Level FlightAware ADS-B (KPVU)
07:08PM 40.1035 -110.9240 43° Northeast 453 521 37,000  Level FlightAware ADS-B
07:09PM 40.1449 -110.8723 44° Northeast 452 520 37,000  Level FlightAware ADS-B (KMTJ)
07:09PM 40.1494 -110.8670 42° Northeast 452 520 37,000  Level FlightAware ADS-B
07:09PM 40.1927 -110.8128 44° Northeast 453 521 37,000  Level FlightAware ADS-B (KMTJ)
07:09PM 40.1975 -110.8070 43° Northeast 453 521 37,000  Level FlightAware ADS-B
07:10PM 40.2451 -110.7470 44° Northeast 454 522 37,000  Level FlightAware ADS-B
07:10PM 40.2493 -110.7422 42° Northeast 455 524 37,000  Level FlightAware ADS-B (KMTJ)
07:10PM 40.2899 -110.6910 44° Northeast 458 527 37,000  Level FlightAware ADS-B
07:11PM 40.2957 -110.6840 42° Northeast 458 527 37,000  Level FlightAware ADS-B (KMTJ)
07:11PM 40.3374 -110.6320 44° Northeast 458 527 37,000  Level FlightAware ADS-B
07:11PM 40.3456 -110.6215 44° Northeast 458 527 37,000  Level FlightAware ADS-B (KMTJ)
07:12PM 40.3911 -110.5640 44° Northeast 455 524 37,000  Level FlightAware ADS-B
07:12PM 40.3917 -110.5635 31° Northeast 456 525 37,000  Level FlightAware ADS-B (KMTJ)
07:12PM 40.4381 -110.5050 44° Northeast 456 525 37,000  Level FlightAware ADS-B
07:12PM 40.4390 -110.5040 40° Northeast 457 526 37,000  Level FlightAware ADS-B (KMTJ)
07:13PM 40.4843 -110.4470 44° Northeast 457 526 37,000  Level FlightAware ADS-B (KMTJ)
07:13PM 40.4903 -110.4390 45° Northeast 457 526 37,000  Level FlightAware ADS-B
07:13PM 40.5315 -110.3873 44° Northeast 457 526 37,000  Level FlightAware ADS-B (KMTJ)
07:13PM 40.5363 -110.3810 45° Northeast 457 526 37,000  Level FlightAware ADS-B
07:14PM 40.5775 -110.3289 44° Northeast 458 527 37,000  Level FlightAware ADS-B (KMTJ)
07:14PM 40.5815 -110.3240 43° Northeast 458 527 37,000  Level FlightAware ADS-B
07:14PM 40.6231 -110.2711 44° Northeast 460 529 37,000  Level FlightAware ADS-B (KMTJ)
07:14PM 40.6290 -110.2640 42° Northeast 460 529 37,000  Level FlightAware ADS-B
07:15PM 40.6739 -110.2065 44° Northeast 460 529 37,000  Level FlightAware ADS-B (KMTJ)
07:15PM 40.7223 -110.1447 44° Northeast 458 527 37,000  Level FlightAware ADS-B (KMTJ)
07:16PM 40.7703 -110.0834 44° Northeast 457 526 37,000  Level FlightAware ADS-B (KMTJ)
07:16PM 40.8280 -110.0090 44° Northeast 458 527 37,000  Level FlightAware
07:17PM 40.8762 -109.9475 44° Northeast 455 524 37,000  Level FlightAware ADS-B (KMTJ)
07:18PM 40.9330 -109.8740 44° Northeast 446 513 37,000  Level FlightAware
07:18PM 40.9880 -109.8030 44° Northeast 446 513 37,000  Level FlightAware
07:19PM 41.0437 -109.7315 44° Northeast 448 516 37,000  Level FlightAware ADS-B (KMTJ)
07:19PM 41.0909 -109.6702 44° Northeast 449 517 37,000  Level FlightAware ADS-B (KMTJ)
07:20PM 41.1314 -109.6177 44° Northeast 449 517 37,000  Level FlightAware ADS-B (KMTJ)
07:20PM 41.1940 -109.5390 43° Northeast 446 513 37,000  Level FlightAware
07:21PM 41.2580 -109.4790 35° Northeast 443 510 37,000  Level FlightAware
07:22PM 41.3110 -109.4310 34° Northeast 444 511 37,000  Level FlightAware
07:22PM 41.3740 -109.3740 34° Northeast 446 513 37,000  Level FlightAware
07:23PM 41.4340 -109.3190 34° Northeast 447 514 37,000  Level FlightAware
07:23PM 41.4970 -109.2620 34° Northeast 447 514 37,000  Level FlightAware
07:24PM 41.5520 -109.2110 35° Northeast 444 511 37,000  Level FlightAware
07:25PM 41.6120 -109.1560 34° Northeast 442 509 37,000  Level FlightAware
07:25PM 41.6720 -109.1010 34° Northeast 440 506 37,000  Level FlightAware
07:26PM 41.7330 -109.0440 35° Northeast 440 506 37,000  Level FlightAware
07:26PM 41.7820 -108.9990 34° Northeast 439 505 37,000  Level FlightAware
07:27PM 41.8460 -108.9400 34° Northeast 439 505 37,000  Level FlightAware
07:27PM 41.8990 -108.8910 35° Northeast 439 505 37,000  Level FlightAware
07:28PM 41.9620 -108.8320 35° Northeast 433 498 37,000  Level FlightAware
07:29PM 42.0250 -108.7730 35° Northeast 435 501 37,000  Level FlightAware
07:30PM 42.1060 -108.6980 34° Northeast 437 503 37,000  Level FlightAware
07:30PM 42.1580 -108.6520 33° Northeast 437 503 37,000  Level FlightAware
07:31PM 42.2060 -108.6070 35° Northeast 437 503 37,000  Level FlightAware
07:31PM 42.2570 -108.5610 34° Northeast 437 503 37,000  Level FlightAware
07:32PM 42.3090 -108.5140 34° Northeast 437 503 37,000  Level FlightAware
07:33PM 42.3600 -108.4670 34° Northeast 437 503 37,000  Level FlightAware
07:33PM 42.4110 -108.4200 34° Northeast 437 503 37,000  Level FlightAware
07:34PM 42.4620 -108.3730 34° Northeast 437 503 37,000  Level FlightAware
07:34PM 42.5150 -108.3250 34° Northeast 437 503 37,000  Level FlightAware
07:35PM 42.5660 -108.2780 34° Northeast 437 503 37,000  Level FlightAware
07:36PM 42.6190 -108.2300 34° Northeast 437 503 37,000  Level FlightAware
07:36PM 42.6700 -108.1830 34° Northeast 437 503 37,000  Level FlightAware
07:37PM 42.7190 -108.1380 34° Northeast 437 503 37,000  Level FlightAware
07:37PM 42.7700 -108.0910 34° Northeast 437 503 37,000  Level FlightAware
07:38PM 42.8210 -108.0440 34° Northeast 437 503 37,000  Level FlightAware
07:39PM 42.8740 -107.9960 34° Northeast 437 503 37,000  Level FlightAware
07:39PM 43.0364 -107.8086 34° Northeast 430 495 37,000  Level Salt Lake Center
07:40PM 43.1344 -107.7144 35° Northeast 432 497 37,000  Level Salt Lake Center
07:41PM 43.2306 -107.6178 36° Northeast 431 496 37,000  Level Salt Lake Center
07:47PM 43.7700 -107.0840 36° Northeast 423 487 37,000  Level FlightAware
07:47PM 43.8170 -107.0360 36° Northeast 423 487 37,000  Level FlightAware
07:48PM 43.8660 -106.9870 36° Northeast 423 487 37,000  Level FlightAware
07:48PM 43.9140 -106.9390 36° Northeast 423 487 37,000  Level FlightAware
07:49PM 43.9940 -106.8580 36° Northeast 427 491 37,000  Level FlightAware
07:50PM 44.0530 -106.7980 36° Northeast 427 491 37,000  Level FlightAware
07:50PM 44.1160 -106.7340 36° Northeast 425 489 37,000  Level FlightAware
07:51PM 44.1730 -106.6760 36° Northeast 427 491 37,000  Level FlightAware
07:51PM 44.2280 -106.6200 36° Northeast 427 491 37,000  Level FlightAware
07:52PM 44.2830 -106.5630 37° Northeast 427 491 37,000  Level FlightAware
07:53PM 44.3410 -106.5030 36° Northeast 428 493 37,000  Level FlightAware
07:53PM 44.3980 -106.4450 36° Northeast 428 493 37,000  Level FlightAware
07:54PM 44.4490 -106.3930 36° Northeast 429 494 37,000  Level FlightAware
07:54PM 44.5040 -106.3350 37° Northeast 429 494 37,000  Level FlightAware
07:55PM 44.5640 -106.2730 36° Northeast 431 496 37,000  Level FlightAware
07:56PM 44.6210 -106.2140 36° Northeast 423 487 37,000  Level FlightAware
07:56PM 44.6690 -106.1640 37° Northeast 420 483 37,000  Level FlightAware
07:57PM 44.7270 -106.1040 36° Northeast 418 481 37,000  Level FlightAware
07:57PM 44.7840 -106.0440 37° Northeast 416 479 37,000  Level FlightAware
07:58PM 44.8410 -105.9840 37° Northeast 418 481 37,000  Level FlightAware
07:58PM 44.8880 -105.9350 36° Northeast 418 481 37,000  Level FlightAware
07:59PM 44.9440 -105.8750 37° Northeast 419 482 37,000  Level FlightAware
08:00PM 44.9930 -105.8230 37° Northeast 417 480 37,000  Level FlightAware
08:00PM 45.0470 -105.7660 37° Northeast 415 478 37,000  Level FlightAware
08:01PM 45.1080 -105.7020 37° Northeast 414 476 37,000  Level FlightAware
08:01PM 45.1580 -105.6480 37° Northeast 415 478 37,000  Level FlightAware
08:02PM 45.2130 -105.5900 37° Northeast 417 480 37,000  Level FlightAware
08:03PM 45.2680 -105.5310 37° Northeast 418 481 37,000  Level FlightAware
08:03PM 45.3200 -105.4750 37° Northeast 417 480 37,000  Level FlightAware
08:04PM 45.3740 -105.4160 37° Northeast 418 481 37,000  Level FlightAware
08:04PM 45.4290 -105.3570 37° Northeast 418 481 37,000  Level FlightAware
08:05PM 45.4870 -105.2950 37° Northeast 416 479 37,000  Level FlightAware
08:05PM 45.5330 -105.2450 37° Northeast 417 480 37,000  Level FlightAware
08:06PM 45.5890 -105.1840 37° Northeast 419 482 37,000  Level FlightAware
08:07PM 45.6440 -105.1250 37° Northeast 420 483 37,000  Level FlightAware
08:07PM 45.6960 -105.0670 38° Northeast 422 486 37,000  Level FlightAware
08:08PM 45.7510 -105.0070 37° Northeast 420 483 37,000  Level FlightAware
08:08PM 45.8080 -104.9450 37° Northeast 421 484 37,000  Level FlightAware
08:09PM 45.8550 -104.8930 38° Northeast 420 483 37,000  Level FlightAware
08:10PM 45.9040 -104.8400 37° Northeast 420 483 37,000  Level FlightAware
08:10PM 45.9510 -104.7890 37° Northeast 420 483 37,000  Level FlightAware
08:11PM 46.0000 -104.7360 37° Northeast 420 483 37,000  Level FlightAware
08:11PM 46.0520 -104.6800 37° Northeast 420 483 37,000  Level FlightAware
08:12PM 46.0990 -104.6280 37° Northeast 420 483 37,000  Level FlightAware
08:13PM 46.1470 -104.5770 36° Northeast 420 483 37,000  Level FlightAware
08:13PM 46.1940 -104.5250 37° Northeast 420 483 37,000  Level FlightAware
08:14PM 46.2420 -104.4730 37° Northeast 420 483 37,000  Level FlightAware
08:14PM 46.2900 -104.4200 37° Northeast 420 483 37,000  Level FlightAware
08:15PM 46.3390 -104.3670 37° Northeast 420 483 37,000  Level FlightAware
08:16PM 46.3870 -104.3150 37° Northeast 420 483 37,000  Level FlightAware
08:16PM 46.4340 -104.2630 37° Northeast 420 483 37,000  Level FlightAware
08:17PM 46.4830 -104.2100 37° Northeast 420 483 37,000  Level FlightAware
08:17PM 46.5300 -104.1580 37° Northeast 420 483 37,000  Level FlightAware
08:18PM 46.5780 -104.1060 37° Northeast 420 483 37,000  Level FlightAware
08:19PM 46.6280 -104.0510 37° Northeast 420 483 37,000  Level FlightAware
08:19PM 46.8122 -103.8156 37° Northeast 416 479 37,000  Level Minneapolis Center
08:20PM 46.9036 -103.7097 38° Northeast 418 481 37,000  Level Minneapolis Center
08:21PM 46.9936 -103.6039 39° Northeast 421 484 37,000  Level Salt Lake Center
08:22PM 47.0856 -103.4989 38° Northeast 422 486 37,000  Level Salt Lake Center
08:24PM 47.1767 -103.3911 39° Northeast 423 487 37,000  Level Salt Lake Center
08:25PM 47.2672 -103.2850 38° Northeast 422 486 37,000  Level Salt Lake Center
08:26PM 47.3744 -103.1583 39° Northeast 418 481 37,000  Level Salt Lake Center
08:27PM 47.4625 -103.0542 39° Northeast 414 476 37,000  Level Salt Lake Center
08:28PM 47.5522 -102.9486 38° Northeast 414 476 37,000  Level Salt Lake Center
08:29PM 47.6594 -102.8197 39° Northeast 419 482 37,000  Level Minneapolis Center
08:30PM 47.7522 -102.7078 39° Northeast 428 493 37,000  Level Minneapolis Center
08:31PM 47.8442 -102.5961 39° Northeast 431 496 37,000  Level Minneapolis Center
08:32PM 47.9339 -102.4844 40° Northeast 425 489 37,000  Level Minneapolis Center
08:33PM 48.0242 -102.3728 40° Northeast 425 489 37,000  Level Minneapolis Center
08:34PM 48.1156 -102.2606 39° Northeast 426 490 37,000  Level Minneapolis Center
08:40PM 48.6680 -101.5740 39° Northeast 442 509 37,000  Level FlightAware
08:40PM 48.7200 -101.5080 40° Northeast 444 511 37,000  Level FlightAware
08:41PM 48.7880 -101.4210 40° Northeast 444 511 37,000  Level FlightAware
08:42PM 48.8440 -101.3500 40° Northeast 442 509 37,000  Level FlightAware
08:42PM 48.8990 -101.2790 40° Northeast 442 509 37,000  Level FlightAware
08:43PM 48.9490 -101.2150 40° Northeast 444 511 37,000  Level FlightAware
08:43PM 49.0040 -101.1440 40° Northeast 442 509 37,000  Level FlightAware
08:44PM 49.0650 -101.0660 40° Northeast 441 507 37,000  Level FlightAware
08:44PM 49.1140 -101.0010 41° Northeast 439 505 37,000  Level FlightAware
08:45PM 49.1720 -100.9260 40° Northeast 437 503 37,000  Level FlightAware
08:45PM 49.2080 -100.8790 40° Northeast 438 504 37,000  Level FlightAware
08:46PM 49.2660 -100.8040 40° Northeast 441 507 37,000  Level FlightAware
08:47PM 49.3200 -100.7320 41° Northeast 443 510 37,000  Level FlightAware
08:47PM 49.3700 -100.6670 40° Northeast 443 510 37,000  Level FlightAware
08:48PM 49.4300 -100.5870 41° Northeast 446 513 37,000  Level FlightAware
08:48PM 49.4840 -100.5160 40° Northeast 445 512 37,000  Level FlightAware
08:49PM 49.5360 -100.4470 41° Northeast 444 511 37,000  Level FlightAware
08:50PM 49.5890 -100.3770 41° Northeast 445 512 37,000  Level FlightAware
08:50PM 49.6460 -100.3010 41° Northeast 447 514 37,000  Level FlightAware
08:51PM 49.7050 -100.2220 41° Northeast 450 518 37,000  Level FlightAware
08:51PM 49.7550 -100.1550 41° Northeast 452 520 37,000  Level FlightAware
08:52PM 49.8120 -100.0780 41° Northeast 453 521 37,000  Level FlightAware
08:53PM 49.8670 -100.0040 41° Northeast 453 521 37,000  Level FlightAware
08:53PM 49.9220 -99.9280 42° Northeast 451 519 37,000  Level FlightAware
08:54PM 49.9820 -99.8540 38° Northeast 450 518 37,000  Level FlightAware
08:54PM 50.0360 -99.7880 38° Northeast 452 520 37,000  Level FlightAware
08:55PM 50.0940 -99.7160 39° Northeast 453 521 37,000  Level FlightAware
08:55PM 50.1480 -99.6480 39° Northeast 452 520 37,000  Level FlightAware
08:56PM 50.2050 -99.5760 39° Northeast 451 519 37,000  Level FlightAware
08:57PM 50.2630 -99.5030 39° Northeast 452 520 37,000  Level FlightAware
08:57PM 50.3210 -99.4290 39° Northeast 454 522 37,000  Level FlightAware
08:58PM 50.3810 -99.3540 39° Northeast 452 520 37,000  Level FlightAware
08:58PM 50.4330 -99.2870 39° Northeast 452 520 37,000  Level FlightAware
08:59PM 50.4920 -99.2110 39° Northeast 454 522 37,000  Level FlightAware
08:59PM 50.5420 -99.1470 39° Northeast 454 522 37,000  Level FlightAware
09:00PM 50.5980 -99.0750 39° Northeast 454 522 37,000  Level FlightAware
09:01PM 50.6610 -98.9940 39° Northeast 456 525 37,000  Level FlightAware
09:01PM 50.7180 -98.9200 39° Northeast 457 526 37,000  Level FlightAware
09:02PM 50.7790 -98.8400 40° Northeast 457 526 37,000  Level FlightAware
09:02PM 50.8300 -98.7740 39° Northeast 456 525 37,000  Level FlightAware
09:03PM 50.8910 -98.6950 39° Northeast 454 522 37,000  Level FlightAware
09:04PM 50.9460 -98.6220 40° Northeast 454 522 37,000  Level FlightAware
09:04PM 50.9960 -98.5570 39° Northeast 454 522 37,000  Level FlightAware
09:05PM 51.0550 -98.4780 40° Northeast 455 524 37,000  Level FlightAware
09:05PM 51.1150 -98.3980 40° Northeast 457 526 37,000  Level FlightAware
09:06PM 51.1740 -98.3210 39° Northeast 459 528 37,000  Level FlightAware
09:07PM 51.2310 -98.2450 40° Northeast 460 529 37,000  Level FlightAware
09:07PM 51.2850 -98.1720 40° Northeast 460 529 37,000  Level FlightAware
09:08PM 51.3430 -98.0940 40° Northeast 461 531 37,000  Level FlightAware
09:08PM 51.4040 -98.0120 40° Northeast 462 532 37,000  Level FlightAware
09:09PM 51.4530 -97.9460 40° Northeast 464 534 37,000  Level FlightAware
09:09PM 51.5120 -97.8650 40° Northeast 464 534 37,000  Level FlightAware
09:10PM 51.5740 -97.7810 40° Northeast 464 534 37,000  Level FlightAware
09:11PM 51.6280 -97.7070 40° Northeast 463 533 37,000  Level FlightAware
09:11PM 51.6830 -97.6320 40° Northeast 465 535 37,000  Level FlightAware
09:12PM 51.7670 -97.5150 41° Northeast 468 539 37,000  Level FlightAware
09:13PM 51.8220 -97.4400 40° Northeast 467 537 37,000  Level FlightAware
09:13PM 51.8790 -97.3610 41° Northeast 463 533 37,000  Level FlightAware
09:14PM 51.9390 -97.2780 40° Northeast 462 532 37,000  Level FlightAware
09:14PM 51.9870 -97.2110 41° Northeast 462 532 37,000  Level FlightAware
09:15PM 52.0500 -97.1220 41° Northeast 462 532 37,000  Level FlightAware
09:15PM 52.1050 -97.0450 41° Northeast 462 532 37,000  Level FlightAware
09:16PM 52.1620 -96.9640 41° Northeast 462 532 37,000  Level FlightAware
09:17PM 52.2220 -96.8780 41° Northeast 464 534 37,000  Level FlightAware
09:17PM 52.2770 -96.8010 41° Northeast 464 534 37,000  Level FlightAware
09:18PM 52.3310 -96.7240 41° Northeast 464 534 37,000  Level FlightAware
09:18PM 52.3870 -96.6440 41° Northeast 465 535 37,000  Level FlightAware
09:19PM 52.4460 -96.5580 42° Northeast 465 535 37,000  Level FlightAware
09:20PM 52.5050 -96.4730 41° Northeast 464 534 37,000  Level FlightAware
09:20PM 52.5610 -96.3930 41° Northeast 464 534 37,000  Level FlightAware
09:21PM 52.6090 -96.3220 42° Northeast 465 535 37,000  Level FlightAware
09:21PM 52.6730 -96.2290 41° Northeast 465 535 37,000  Level FlightAware
09:22PM 52.7250 -96.1530 42° Northeast 466 536 37,000  Level FlightAware
09:22PM 52.7840 -96.0670 41° Northeast 465 535 37,000  Level FlightAware
09:23PM 52.8380 -95.9870 42° Northeast 465 535 37,000  Level FlightAware
09:24PM 52.8920 -95.9060 42° Northeast 465 535 37,000  Level FlightAware
09:24PM 52.9450 -95.8280 42° Northeast 466 536 37,000  Level FlightAware
09:25PM 53.0050 -95.7380 42° Northeast 468 539 37,000  Level FlightAware
09:26PM 53.0850 -95.6190 42° Northeast 468 539 37,000  Level FlightAware
09:26PM 53.1340 -95.5450 42° Northeast 468 539 37,000  Level FlightAware
09:27PM 53.1830 -95.4710 42° Northeast 468 539 37,000  Level FlightAware
09:28PM 53.2340 -95.3950 42° Northeast 468 539 37,000  Level FlightAware
09:28PM 53.2830 -95.3210 42° Northeast 468 539 37,000  Level FlightAware
09:29PM 53.3320 -95.2470 42° Northeast 468 539 37,000  Level FlightAware
09:29PM 53.3810 -95.1720 42° Northeast 468 539 37,000  Level FlightAware
09:30PM 53.4310 -95.0980 41° Northeast 468 539 37,000  Level FlightAware
09:31PM 53.4800 -95.0240 42° Northeast 468 539 37,000  Level FlightAware
09:31PM 53.5290 -94.9490 42° Northeast 468 539 37,000  Level FlightAware
09:32PM 53.5780 -94.8740 42° Northeast 468 539 37,000  Level FlightAware
09:32PM 53.6290 -94.7980 41° Northeast 468 539 37,000  Level FlightAware
09:33PM 53.6780 -94.7230 42° Northeast 468 539 37,000  Level FlightAware
09:34PM 53.7270 -94.6480 42° Northeast 468 539 37,000  Level FlightAware
09:34PM 53.7780 -94.5710 42° Northeast 468 539 37,000  Level FlightAware
09:35PM 53.8270 -94.4960 42° Northeast 468 539 37,000  Level FlightAware
09:36PM 54.0333 -94.1167 42° Northeast 480 552 37,000  Level Winnipeg Center
09:37PM 54.1333 -93.9667 41° Northeast 460 529 37,000  Level Winnipeg Center
09:38PM 54.2167 -93.7833 52° Northeast 470 541 37,000  Level Winnipeg Center
09:39PM 54.3167 -93.6333 41° Northeast 480 552 37,000  Level Winnipeg Center
09:40PM 54.4167 -93.4833 41° Northeast 480 552 37,000  Level Winnipeg Center
09:41PM 54.5167 -93.3333 41° Northeast 480 552 37,000  Level Winnipeg Center
09:42PM 54.6000 -93.1833 46° Northeast 480 552 37,000  Level Winnipeg Center
09:43PM 54.7000 -93.0000 47° Northeast 480 552 37,000  Level Winnipeg Center
09:44PM 54.8000 -92.8333 44° Northeast 480 552 37,000  Level Winnipeg Center
09:44PM 54.8667 -92.6667 55° Northeast 480 552 37,000  Level Edmonton Center
09:45PM 54.9667 -92.5167 41° Northeast 480 552 37,000  Level Edmonton Center
09:47PM 55.1667 -92.1833 44° Northeast 480 552 37,000  Level Edmonton Center
09:48PM 55.2500 -92.0000 51° Northeast 480 552 37,000  Level Edmonton Center
09:49PM 55.3500 -91.8500 40° Northeast 480 552 37,000  Level Edmonton Center
09:51PM 55.4667 -91.6667 42° Northeast 490 564 37,000  Level Winnipeg Center
09:52PM 55.5667 -91.5167 40° Northeast 490 564 37,000  Level Winnipeg Center
09:52PM 55.6333 -91.3167 59° Northeast 480 552 37,000  Level Edmonton Center
09:53PM 55.7333 -91.1500 43° Northeast 480 552 37,000  Level Edmonton Center
09:54PM 55.8167 -90.9667 51° Northeast 480 552 37,000  Level Edmonton Center
09:56PM 55.9333 -90.8333 33° Northeast 490 564 37,000  Level Winnipeg Center
09:57PM 56.0500 -90.6333 44° Northeast 490 564 37,000  Level Winnipeg Center
09:57PM 56.1000 -90.4667 62° Northeast 490 564 37,000  Level Edmonton Center
09:58PM 56.2000 -90.2667 48° Northeast 490 564 37,000  Level Edmonton Center
09:59PM 56.3000 -90.0833 45° Northeast 490 564 37,000  Level Edmonton Center
10:01PM 56.4167 -89.9000 41° Northeast 500 575 37,000  Level Winnipeg Center
10:02PM 56.5167 -89.7333 43° Northeast 490 564 37,000  Level Winnipeg Center
10:03PM 56.6000 -89.5667 48° Northeast 490 564 37,000  Level Winnipeg Center
10:03PM 56.6667 -89.3500 61° Northeast 490 564 37,000  Level Edmonton Center
10:04PM 56.7667 -89.1833 42° Northeast 490 564 37,000  Level Edmonton Center
10:05PM 56.8667 -88.9833 48° Northeast 490 564 37,000  Level Edmonton Center
10:06PM 56.9500 -88.8167 47° Northeast 490 564 37,000  Level Edmonton Center
10:07PM 57.0333 -88.6167 53° Northeast 490 564 37,000  Level Edmonton Center
10:08PM 57.1333 -88.4167 47° Northeast 490 564 37,000  Level Edmonton Center
10:09PM 57.2333 -88.2333 45° Northeast 490 564 37,000  Level Edmonton Center
10:10PM 57.3333 -88.0333 47° Northeast 490 564 37,000  Level Edmonton Center
10:11PM 57.4167 -87.8667 47° Northeast 490 564 37,000  Level Edmonton Center
10:12PM 57.5000 -87.6667 52° Northeast 500 575 37,000  Level Edmonton Center
10:13PM 57.6000 -87.4500 49° Northeast 500 575 37,000  Level Edmonton Center
10:15PM 57.6935 -87.2536 48° Northeast  Level FlightAware Approximate
10:15PM 57.7833 -87.0667 48° Northeast 500 575 37,000  Level Edmonton Center
10:16PM 57.8833 -86.8833 44° Northeast 500 575 37,000  Level Edmonton Center
10:17PM 57.9667 -86.6667 54° Northeast 500 575 37,000  Level Edmonton Center
10:18PM 58.0500 -86.4500 54° Northeast 490 564 37,000  Level Edmonton Center
10:19PM 58.1333 -86.5000 342° North 500 575 37,000  Level Montreal Center
10:20PM 58.2167 -86.3000 52° Northeast 490 564 37,000  Level Montreal Center
10:21PM 58.3167 -86.1000 46° Northeast 490 564 37,000  Level Montreal Center
10:22PM 58.4000 -85.9000 51° Northeast 500 575 37,000  Level Montreal Center
10:23PM 58.4833 -85.7000 51° Northeast 500 575 37,000  Level Montreal Center
10:24PM 58.5833 -85.5000 46° Northeast 500 575 37,000  Level Montreal Center
10:25PM 58.6667 -85.2833 53° Northeast 500 575 37,000  Level Montreal Center
10:26PM 58.7667 -85.0833 46° Northeast 500 575 37,000  Level Montreal Center
10:27PM 58.8500 -84.8500 55° Northeast 500 575 37,000  Level Montreal Center
10:28PM 58.9333 -84.6333 53° Northeast 500 575 37,000  Level Montreal Center
10:29PM 59.0333 -84.4333 46° Northeast 510 587 37,000  Level Montreal Center
10:30PM 59.1167 -84.2167 53° Northeast 500 575 37,000  Level Montreal Center
10:31PM 59.2000 -83.9833 55° Northeast 500 575 37,000  Level Montreal Center
10:32PM 59.2833 -83.7667 53° Northeast 510 587 37,000  Level Montreal Center
10:33PM 59.3667 -83.5833 48° Northeast 500 575 37,000  Level Montreal Center
10:34PM 59.4667 -83.3333 52° Northeast 500 575 37,000  Level Montreal Center
10:35PM 59.5500 -83.1167 53° Northeast 500 575 37,000  Level Montreal Center
10:36PM 59.6167 -82.9000 59° Northeast 500 575 37,000  Level Montreal Center
10:37PM 59.7167 -82.6500 52° Northeast 500 575 37,000  Level Montreal Center
10:38PM 59.8167 -82.4500 45° Northeast 500 575 37,000  Level Montreal Center
10:39PM 59.8833 -82.2167 60° Northeast 500 575 37,000  Level Montreal Center
10:40PM 59.9667 -82.0333 48° Northeast 500 575 37,000  Level Montreal Center
10:41PM 60.0500 -81.7833 56° Northeast 500 575 37,000  Level Montreal Center
10:42PM 60.1333 -81.5500 54° Northeast 500 575 37,000  Level Montreal Center
10:43PM 60.2167 -81.3333 52° Northeast 500 575 37,000  Level Montreal Center
10:44PM 60.3000 -81.1167 52° Northeast 500 575 37,000  Level Montreal Center
10:45PM 60.3833 -80.8833 54° Northeast 500 575 37,000  Level Montreal Center
10:46PM 60.4500 -80.6500 60° Northeast 500 575 37,000  Level Montreal Center
10:52PM 60.9330 -79.1880 60° Northeast 506 582 37,000  Level FlightAware
10:53PM 60.9790 -79.0470 56° Northeast 505 581 37,000  Level FlightAware
10:53PM 61.0260 -78.9040 56° Northeast 504 580 37,000  Level FlightAware
10:54PM 61.0670 -78.7760 56° Northeast 505 581 37,000  Level FlightAware
10:54PM 61.1140 -78.6300 56° Northeast 506 582 37,000  Level FlightAware
10:55PM 61.1610 -78.4860 56° Northeast 508 585 37,000  Level FlightAware
10:56PM 61.2080 -78.3380 57° Northeast 508 585 37,000  Level FlightAware
10:56PM 61.2500 -78.2050 57° Northeast 507 583 37,000  Level FlightAware
10:57PM 61.2960 -78.0560 57° Northeast 507 583 37,000  Level FlightAware
10:57PM 61.3440 -77.9060 56° Northeast 507 583 37,000  Level FlightAware
10:58PM 61.3830 -77.7780 57° Northeast 508 585 37,000  Level FlightAware
10:58PM 61.4210 -77.6550 57° Northeast 510 587 37,000  Level FlightAware
10:59PM 61.4750 -77.4790 57° Northeast 511 588 37,000  Level FlightAware
11:00PM 61.5200 -77.3320 57° Northeast 514 592 37,000  Level FlightAware
11:00PM 61.5620 -77.1940 57° Northeast 515 593 37,000  Level FlightAware
11:01PM 61.6000 -77.0670 58° Northeast 514 592 37,000  Level FlightAware
11:01PM 61.6520 -76.8940 58° Northeast 514 592 37,000  Level FlightAware
11:02PM 61.6980 -76.7390 58° Northeast 514 592 37,000  Level FlightAware
11:03PM 61.7390 -76.6000 58° Northeast 514 592 37,000  Level FlightAware
11:03PM 61.7830 -76.4510 58° Northeast 514 592 37,000  Level FlightAware
11:04PM 61.8280 -76.2940 59° Northeast 514 592 37,000  Level FlightAware
11:04PM 61.8670 -76.1600 58° Northeast 512 589 37,000  Level FlightAware
11:05PM 61.9110 -76.0080 58° Northeast 512 589 37,000  Level FlightAware
11:06PM 61.9540 -75.8580 59° Northeast 514 592 37,000  Level FlightAware
11:06PM 62.0010 -75.6920 59° Northeast 514 592 37,000  Level FlightAware
11:07PM 62.0400 -75.5530 59° Northeast 513 590 37,000  Level FlightAware
11:07PM 62.0840 -75.3940 59° Northeast 512 589 37,000  Level FlightAware
11:08PM 62.1270 -75.2410 59° Northeast 511 588 37,000  Level FlightAware
11:08PM 62.1690 -75.0900 59° Northeast 512 589 37,000  Level FlightAware
11:09PM 62.2080 -74.9460 60° Northeast 513 590 37,000  Level FlightAware
11:10PM 62.2520 -74.7850 60° Northeast 513 590 37,000  Level FlightAware
11:10PM 62.2960 -74.6240 59° Northeast 513 590 37,000  Level FlightAware
11:11PM 62.3430 -74.4480 60° Northeast 512 589 37,000  Level FlightAware
11:11PM 62.3800 -74.3090 60° Northeast 512 589 37,000  Level FlightAware
11:12PM 62.4240 -74.1420 60° Northeast 511 588 37,000  Level FlightAware
11:13PM 62.4660 -73.9830 60° Northeast 510 587 37,000  Level FlightAware
11:13PM 62.5040 -73.8370 61° Northeast 510 587 37,000  Level FlightAware
11:14PM 62.5460 -73.6740 61° Northeast 509 586 37,000  Level FlightAware
11:14PM 62.5870 -73.5170 60° Northeast 507 583 37,000  Level FlightAware
11:15PM 62.6270 -73.3620 61° Northeast 506 582 37,000  Level FlightAware
11:16PM 62.6650 -73.2110 61° Northeast 506 582 37,000  Level FlightAware
11:16PM 62.7050 -73.0530 61° Northeast 508 585 37,000  Level FlightAware
11:17PM 62.7460 -72.8860 62° Northeast 509 586 37,000  Level FlightAware
11:17PM 62.7820 -72.7420 61° Northeast 510 587 37,000  Level FlightAware
11:18PM 62.8210 -72.5860 61° Northeast 512 589 37,000  Level FlightAware
11:18PM 62.8620 -72.4180 62° Northeast 512 589 37,000  Level FlightAware
11:19PM 62.8970 -72.2750 62° Northeast 513 590 37,000  Level FlightAware
11:20PM 62.9350 -72.1170 62° Northeast 513 590 37,000  Level FlightAware
11:20PM 62.9780 -71.9360 62° Northeast 513 590 37,000  Level FlightAware
11:21PM 63.0170 -71.7740 62° Northeast 515 593 37,000  Level FlightAware
11:21PM 63.0510 -71.6270 63° Northeast 516 594 37,000  Level FlightAware
11:22PM 63.0920 -71.4540 62° Northeast 517 595 37,000  Level FlightAware
11:23PM 63.1300 -71.2910 63° Northeast 518 596 37,000  Level FlightAware
11:23PM 63.1700 -71.1190 63° Northeast 519 597 37,000  Level FlightAware
11:24PM 63.2080 -70.9540 63° Northeast 518 596 37,000  Level FlightAware
11:24PM 63.2430 -70.7980 63° Northeast 519 597 37,000  Level FlightAware
11:25PM 63.2830 -70.6220 63° Northeast 519 597 37,000  Level FlightAware
11:26PM 63.3210 -70.4490 64° Northeast 519 597 37,000  Level FlightAware
11:26PM 63.3560 -70.2940 63° Northeast 519 597 37,000  Level FlightAware
11:27PM 63.3950 -70.1150 64° Northeast 518 596 37,000  Level FlightAware
11:27PM 63.4320 -69.9480 64° Northeast 516 594 37,000  Level FlightAware
11:28PM 63.4670 -69.7870 64° Northeast 510 587 37,000  Level FlightAware
11:28PM 63.4990 -69.6350 65° Northeast 510 587 37,000  Level FlightAware
11:29PM 63.5370 -69.4590 64° Northeast 510 587 37,000  Level FlightAware
11:30PM 63.5720 -69.2930 65° Northeast 512 589 37,000  Level FlightAware
11:30PM 63.6100 -69.1120 65° Northeast 513 590 37,000  Level FlightAware
11:31PM 63.6510 -68.9190 64° Northeast 512 589 37,000  Level FlightAware
11:32PM 63.6840 -68.7680 64° Northeast 512 589 37,000  Level FlightAware
11:32PM 63.7150 -68.6210 64° Northeast 512 589 37,000  Level FlightAware
11:33PM 63.7470 -68.4740 64° Northeast 512 589 37,000  Level FlightAware
11:33PM 63.7790 -68.3270 64° Northeast 512 589 37,000  Level FlightAware
11:34PM 63.8110 -68.1790 64° Northeast 512 589 37,000  Level FlightAware
11:35PM 63.8420 -68.0310 65° Northeast 512 589 37,000  Level FlightAware
11:35PM 63.8740 -67.8840 64° Northeast 512 589 37,000  Level FlightAware
11:36PM 63.9060 -67.7350 64° Northeast 512 589 37,000  Level FlightAware
11:36PM 63.9380 -67.5870 64° Northeast 512 589 37,000  Level FlightAware
11:37PM 63.9690 -67.4390 64° Northeast 512 589 37,000  Level FlightAware
11:38PM 64.0010 -67.2900 64° Northeast 512 589 37,000  Level FlightAware
11:38PM 64.0330 -67.1420 64° Northeast 512 589 37,000  Level FlightAware
11:39PM 64.0640 -66.9930 65° Northeast 512 589 37,000  Level FlightAware
11:39PM 64.0960 -66.8440 64° Northeast 512 589 37,000  Level FlightAware
11:40PM 64.1280 -66.6940 64° Northeast 512 589 37,000  Level FlightAware
11:40PM 64.4167 -66.3667 64° Northeast 520 598 37,000  Level Gander Center
11:41PM 64.5000 -66.0833 56° Northeast 520 598 37,000  Level Gander Center
11:42PM 64.5667 -65.8167 60° Northeast 520 598 37,000  Level Gander Center
11:43PM 64.6500 -65.5167 57° Northeast 520 598 37,000  Level Gander Center
11:44PM 64.7333 -65.2667 52° Northeast 520 598 37,000  Level Gander Center
11:45PM 64.8167 -64.9667 57° Northeast 520 598 37,000  Level Gander Center
11:46PM 64.8833 -64.7000 59° Northeast 520 598 37,000  Level Gander Center
11:47PM 64.9500 -64.4000 62° Northeast 520 598 37,000  Level Gander Center
11:48PM 65.0500 -64.1333 48° Northeast 520 598 37,000  Level Gander Center
11:49PM 65.1167 -63.8333 62° Northeast 520 598 37,000  Level Gander Center
11:50PM 65.2000 -63.5167 58° Northeast 520 598 37,000  Level Gander Center
11:51PM 65.2667 -63.2500 59° Northeast 520 598 37,000  Level Gander Center
11:52PM 65.3333 -62.9333 63° Northeast 520 598 37,000  Level Gander Center
11:54PM 65.4333 -62.5333 59° Northeast 520 598 37,000  Level Montreal Center
11:54PM 65.4167 -62.1167 95° East 520 598 37,000  Level Edmonton Center
11:55PM 65.4833 -61.8333 60° Northeast 520 598 37,000  Level Edmonton Center
11:56PM 65.6333 -61.7667 10° North 520 598 37,000  Level Gander Center
11:57PM 65.7000 -61.4500 63° Northeast 520 598 37,000  Level Gander Center
11:58PM 65.7833 -61.1167 59° Northeast 520 598 37,000  Level Gander Center
11:59PM 65.8500 -60.8333 60° Northeast 520 598 37,000  Level Gander Center
12:00AM 65.9000 -60.5167 69° East 520 598 37,000  Level Gander Center
12:01AM 65.9833 -60.2333 54° Northeast 520 598 37,000  Level Gander Center
12:02AM 66.0500 -59.9000 64° Northeast 520 598 37,000  Level Gander Center
12:03AM 66.1167 -59.6167 60° Northeast 520 598 37,000  Level Gander Center
12:04AM 66.2000 -59.3333 54° Northeast 520 598 37,000  Level Gander Center
12:05AM 66.2667 -59.0000 63° Northeast 520 598 37,000  Level Gander Center
12:10AM 66.0000 -60.0000 58° Northeast 508 585 37,000  Level ETMS Enhanced Traffic Management System
12:11AM 66.6510 -57.2350 63° Northeast 509 586 37,100 240 Climbing FlightAware
12:12AM 66.6840 -57.0850 61° Northeast 507 583 37,600 420 Climbing FlightAware
12:12AM 66.7210 -56.9180 61° Northeast 507 583 37,600  Level FlightAware
12:13AM 66.7560 -56.7540 62° Northeast 507 583 37,600  Level FlightAware
12:14AM 66.7910 -56.5950 61° Northeast 507 583 37,600  Level FlightAware
12:14AM 66.8260 -56.4350 61° Northeast 507 583 37,600 1,140 Level FlightAware
12:15AM 66.8900 -56.1240 58° Northeast 508 585 39,000 1,080 Climbing FlightAware
12:16AM 66.9340 -55.9140 62° Northeast 506 582 39,000  Level FlightAware
12:16AM 66.9780 -55.6990 62° Northeast 506 582 39,000  Level FlightAware
12:17AM 67.0120 -55.5370 62° Northeast 506 582 39,000  Level FlightAware
12:18AM 67.0580 -55.3090 63° Northeast 506 582 39,000  Level FlightAware
12:18AM 67.0970 -55.1110 63° Northeast 506 582 39,000  Level FlightAware
12:19AM 67.1380 -54.9080 62° Northeast 507 583 39,000  Level FlightAware
12:19AM 67.1740 -54.7230 63° Northeast 508 585 39,000  Level FlightAware
12:20AM 67.2090 -54.5440 63° Northeast 508 585 39,000  Level FlightAware
12:20AM 67.2430 -54.3660 64° Northeast 507 583 39,000  Level FlightAware
12:21AM 67.2800 -54.1740 63° Northeast 506 582 39,000  Level FlightAware
12:22AM 67.3170 -53.9810 63° Northeast 504 580 39,000  Level FlightAware
12:22AM 67.3550 -53.7770 64° Northeast 504 580 39,000  Level FlightAware
12:23AM 67.3880 -53.6030 64° Northeast 505 581 39,000  Level FlightAware
12:23AM 67.4260 -53.3940 65° Northeast 505 581 39,000  Level FlightAware
12:24AM 67.4570 -53.2270 64° Northeast 506 582 39,000  Level FlightAware
12:25AM 67.4940 -53.0230 65° Northeast 505 581 39,000  Level FlightAware
12:25AM 67.5300 -52.8240 65° Northeast 504 580 39,000  Level FlightAware
12:26AM 67.5590 -52.6560 66° East 504 580 39,000  Level FlightAware
12:26AM 67.5960 -52.4460 65° Northeast 505 581 39,000  Level FlightAware
12:27AM 67.6320 -52.2430 65° Northeast 506 582 39,000  Level FlightAware
12:27AM 67.6630 -52.0610 66° East 507 583 39,000  Level FlightAware
12:28AM 67.6980 -51.8600 65° Northeast 506 582 39,000  Level FlightAware
12:29AM 67.7300 -51.6700 66° East 506 582 39,000  Level FlightAware
12:29AM 67.7640 -51.4680 66° East 508 585 39,000  Level FlightAware
12:30AM 67.7980 -51.2620 66° East 509 586 39,000  Level FlightAware
12:30AM 67.8320 -51.0570 66° East 510 587 39,000  Level FlightAware
12:31AM 67.8610 -50.8750 67° East 510 587 39,000  Level FlightAware
12:32AM 67.8940 -50.6690 67° East 509 586 39,000  Level FlightAware
12:32AM 67.9270 -50.4620 67° East 509 586 39,000  Level FlightAware
12:33AM 67.9600 -50.2550 67° East 508 585 39,000  Level FlightAware
12:33AM 67.9880 -50.0750 67° East 507 583 39,000  Level FlightAware
12:34AM 68.0190 -49.8660 68° East 508 585 39,000  Level FlightAware
12:34AM 68.0470 -49.6520 71° East 509 586 39,000  Level FlightAware
12:35AM 68.0760 -49.4300 71° East 509 586 39,000  Level FlightAware
12:36AM 68.1010 -49.2360 71° East 508 585 39,000  Level FlightAware
12:36AM 68.1280 -49.0280 71° East 507 583 39,000  Level FlightAware
12:37AM 68.1530 -48.8300 71° East 506 582 39,000  Level FlightAware
12:37AM 68.1770 -48.6380 71° East 506 582 39,000  Level FlightAware
12:38AM 68.2060 -48.4070 71° East 506 582 39,000  Level FlightAware
12:39AM 68.2320 -48.1940 72° East 507 583 39,000  Level FlightAware
12:39AM 68.2550 -48.0040 72° East 506 582 39,000  Level FlightAware
12:40AM 68.2810 -47.7870 72° East 506 582 39,000  Level FlightAware
12:40AM 68.3060 -47.5760 72° East 506 582 39,000  Level FlightAware
12:41AM 68.3320 -47.3510 73° East 505 581 39,000  Level FlightAware
12:41AM 68.3550 -47.1580 72° East 503 579 39,000  Level FlightAware
12:42AM 68.3780 -46.9490 73° East 503 579 39,000  Level FlightAware
12:43AM 68.4030 -46.7290 73° East 502 578 39,000  Level FlightAware
12:43AM 68.4250 -46.5330 73° East 502 578 39,000  Level FlightAware
12:44AM 68.4490 -46.3150 73° East 501 577 39,000  Level FlightAware
12:44AM 68.4700 -46.1140 74° East 502 578 39,000  Level FlightAware
12:45AM 68.4950 -45.8890 73° East 502 578 39,000  Level FlightAware
12:46AM 68.5220 -45.6280 74° East 504 580 39,000  Level FlightAware
12:46AM 68.5440 -45.4090 75° East 503 579 39,000  Level FlightAware
12:47AM 68.5690 -45.1600 75° East 502 578 39,000  Level FlightAware
12:48AM 68.5970 -44.8890 74° East 500 575 39,000  Level FlightAware
12:48AM 68.6170 -44.7020 74° East 500 575 39,000  Level FlightAware
12:49AM 68.6380 -44.4580 77° East 501 577 39,000  Level FlightAware
12:49AM 68.6600 -44.2270 75° East 500 575 39,000  Level FlightAware
12:50AM 68.6810 -44.0060 75° East 500 575 39,000  Level FlightAware
12:51AM 68.7010 -43.7890 76° East 501 577 39,000  Level FlightAware
12:51AM 68.7210 -43.5710 76° East 502 578 39,000  Level FlightAware
12:52AM 68.7400 -43.3760 75° East 502 578 39,000  Level FlightAware
12:53AM 68.7590 -43.1870 74° East 502 578 39,000  Level FlightAware
12:53AM 68.7780 -42.9870 75° East 502 578 39,000  Level FlightAware
12:54AM 68.7970 -42.7920 75° East 502 578 39,000  Level FlightAware
12:54AM 68.8150 -42.6020 75° East 502 578 39,000  Level FlightAware
12:55AM 68.8340 -42.4120 74° East 502 578 39,000  Level FlightAware
12:56AM 68.8520 -42.2220 75° East 502 578 39,000  Level FlightAware
12:56AM 68.8700 -42.0310 75° East 502 578 39,000  Level FlightAware
12:57AM 68.8890 -41.8410 74° East 502 578 39,000  Level FlightAware
12:57AM 68.9070 -41.6500 75° East 502 578 39,000  Level FlightAware
12:58AM 68.9250 -41.4590 75° East 502 578 39,000  Level FlightAware
12:59AM 68.9440 -41.2680 74° East 502 578 39,000  Level FlightAware
12:59AM 68.9620 -41.0770 75° East 502 578 39,000  Level FlightAware
01:00AM 68.9810 -40.8860 74° East 502 578 39,000  Level FlightAware
01:00AM 68.9990 -40.6940 75° East 502 578 39,000  Level FlightAware
01:03AM 69.0026 -39.9098 85° East  Level FlightAware Approximate
01:04AM 69.0127 -39.5465 85° East  Level FlightAware Approximate
01:05AM 69.0219 -39.1830 86° East  Level FlightAware Approximate
01:06AM 69.0305 -38.8192 86° East  Level FlightAware Approximate
01:07AM 69.0382 -38.4551 86° East  Level FlightAware Approximate
01:08AM 69.0452 -38.0907 87° East  Level FlightAware Approximate
01:09AM 69.0513 -37.7262 87° East  Level FlightAware Approximate
01:10AM 69.0567 -37.3614 87° East  Level FlightAware Approximate
01:11AM 69.0614 -36.9965 88° East  Level FlightAware Approximate
01:12AM 69.0652 -36.6315 88° East  Level FlightAware Approximate
01:13AM 69.0683 -36.2663 88° East  Level FlightAware Approximate
01:14AM 69.0706 -35.9010 89° East  Level FlightAware Approximate
01:15AM 69.0722 -35.5357 89° East  Level FlightAware Approximate
01:16AM 69.0729 -35.1703 89° East  Level FlightAware Approximate
01:17AM 69.0729 -34.8049 90° East  Level FlightAware Approximate
01:18AM 69.0721 -34.4396 90° East  Level FlightAware Approximate
01:19AM 69.0705 -34.0743 91° East  Level FlightAware Approximate
01:20AM 69.0681 -33.7090 91° East  Level FlightAware Approximate
01:21AM 69.0650 -33.3438 91° East  Level FlightAware Approximate
01:22AM 69.0611 -32.9788 92° East  Level FlightAware Approximate
01:23AM 69.0564 -32.6139 92° East  Level FlightAware Approximate
01:24AM 69.0509 -32.2491 92° East  Level FlightAware Approximate
01:25AM 69.0447 -31.8846 93° East  Level FlightAware Approximate
01:26AM 69.0377 -31.5203 93° East  Level FlightAware Approximate
01:27AM 69.0299 -31.1562 93° East  Level FlightAware Approximate
01:28AM 69.0213 -30.7924 94° East  Level FlightAware Approximate
01:29AM 69.0120 -30.4289 94° East  Level FlightAware Approximate
01:30AM 69.0019 -30.0657 94° East  Level FlightAware Approximate
01:31AM 68.9801 -29.7071 101° East  Level FlightAware Approximate
01:32AM 68.9552 -29.3501 101° East  Level FlightAware Approximate
01:33AM 68.9295 -28.9940 101° East  Level FlightAware Approximate
01:34AM 68.9031 -28.6387 102° East  Level FlightAware Approximate
01:35AM 68.8760 -28.2843 102° East  Level FlightAware Approximate
01:36AM 68.8481 -27.9308 102° East  Level FlightAware Approximate
01:37AM 68.8195 -27.5781 103° East  Level FlightAware Approximate
01:38AM 68.7901 -27.2264 103° East  Level FlightAware Approximate
01:39AM 68.7601 -26.8756 103° East  Level FlightAware Approximate
01:40AM 68.7293 -26.5258 103° East  Level FlightAware Approximate
01:41AM 68.6978 -26.1770 104° East  Level FlightAware Approximate
01:42AM 68.6655 -25.8291 104° East  Level FlightAware Approximate
01:43AM 68.6326 -25.4823 104° East  Level FlightAware Approximate
01:44AM 68.5989 -25.1364 105° East  Level FlightAware Approximate
01:45AM 68.5646 -24.7917 105° East  Level FlightAware Approximate
01:46AM 68.5295 -24.4480 105° East  Level FlightAware Approximate
01:47AM 68.4937 -24.1053 106° East  Level FlightAware Approximate
01:48AM 68.4573 -23.7638 106° East  Level FlightAware Approximate
01:49AM 68.4201 -23.4234 106° East  Level FlightAware Approximate
01:50AM 68.3823 -23.0841 107° East  Level FlightAware Approximate
01:51AM 68.3437 -22.7459 107° East  Level FlightAware Approximate
01:52AM 68.3045 -22.4089 107° East  Level FlightAware Approximate
01:53AM 68.2646 -22.0731 108° East  Level FlightAware Approximate
01:54AM 68.2241 -21.7384 108° East  Level FlightAware Approximate
01:55AM 68.1828 -21.4049 108° East  Level FlightAware Approximate
01:56AM 68.1409 -21.0727 109° East  Level FlightAware Approximate
01:57AM 68.0984 -20.7416 109° East  Level FlightAware Approximate
01:58AM 68.0551 -20.4118 109° East  Level FlightAware Approximate
01:59AM 68.0113 -20.0833 109° East  Level FlightAware Approximate
02:00AM 67.9478 -19.7808 122° Southeast  Level FlightAware Approximate
02:01AM 67.8775 -19.4885 122° Southeast  Level FlightAware Approximate
02:02AM 67.8066 -19.1980 123° Southeast  Level FlightAware Approximate
02:03AM 67.7352 -18.9093 123° Southeast  Level FlightAware Approximate
02:04AM 67.6633 -18.6223 123° Southeast  Level FlightAware Approximate
02:05AM 67.5909 -18.3370 124° Southeast  Level FlightAware Approximate
02:06AM 67.5179 -18.0535 124° Southeast  Level FlightAware Approximate
02:07AM 67.4445 -17.7718 124° Southeast  Level FlightAware Approximate
02:08AM 67.3707 -17.4918 124° Southeast  Level FlightAware Approximate
02:09AM 67.2963 -17.2135 125° Southeast  Level FlightAware Approximate
02:10AM 67.2214 -16.9370 125° Southeast  Level FlightAware Approximate
02:11AM 67.1461 -16.6621 125° Southeast  Level FlightAware Approximate
02:12AM 67.0703 -16.3890 125° Southeast  Level FlightAware Approximate
02:13AM 66.9940 -16.1176 126° Southeast  Level FlightAware Approximate
02:14AM 66.9173 -15.8479 126° Southeast  Level FlightAware Approximate
02:15AM 66.8401 -15.5799 126° Southeast  Level FlightAware Approximate
02:16AM 66.7625 -15.3136 126° Southeast  Level FlightAware Approximate
02:17AM 66.6844 -15.0489 127° Southeast  Level FlightAware Approximate
02:18AM 66.6059 -14.7860 127° Southeast  Level FlightAware Approximate
02:19AM 66.5270 -14.5247 127° Southeast  Level FlightAware Approximate
02:20AM 66.4476 -14.2650 127° Southeast  Level FlightAware Approximate
02:21AM 66.3678 -14.0070 128° Southeast  Level FlightAware Approximate
02:22AM 66.2876 -13.7507 128° Southeast  Level FlightAware Approximate
02:23AM 66.2069 -13.4959 128° Southeast  Level FlightAware Approximate
02:24AM 66.1258 -13.2429 128° Southeast  Level FlightAware Approximate
02:25AM 66.0444 -12.9914 129° Southeast  Level FlightAware Approximate
02:26AM 65.9625 -12.7415 129° Southeast  Level FlightAware Approximate
02:27AM 65.8802 -12.4932 129° Southeast  Level FlightAware Approximate
02:28AM 65.7975 -12.2465 129° Southeast  Level FlightAware Approximate
02:29AM 65.7144 -12.0015 129° Southeast  Level FlightAware Approximate
02:30AM 65.6309 -11.7579 130° Southeast  Level FlightAware Approximate
02:31AM 65.5471 -11.5160 130° Southeast  Level FlightAware Approximate
02:32AM 65.4628 -11.2756 130° Southeast  Level FlightAware Approximate
02:33AM 65.3782 -11.0367 130° Southeast  Level FlightAware Approximate
02:34AM 65.2932 -10.7994 131° Southeast  Level FlightAware Approximate
02:35AM 65.2078 -10.5637 131° Southeast  Level FlightAware Approximate
02:36AM 65.1221 -10.3294 131° Southeast  Level FlightAware Approximate
02:37AM 65.0360 -10.0966 131° Southeast  Level FlightAware Approximate
02:38AM 64.9543 -9.8561 127° Southeast  Level FlightAware Approximate
02:39AM 64.8756 -9.6106 127° Southeast  Level FlightAware Approximate
02:40AM 64.7965 -9.3665 127° Southeast  Level FlightAware Approximate
02:41AM 64.7170 -9.1238 127° Southeast  Level FlightAware Approximate
02:42AM 64.6371 -8.8825 128° Southeast  Level FlightAware Approximate
02:42AM 64.1220 -7.3860 128° Southeast 496 571 39,000  Level FlightAware
02:43AM 64.5568 -8.6426 128° Southeast  Level FlightAware Approximate
02:43AM 64.0690 -7.2380 129° Southeast 495 570 39,000  Level FlightAware
02:43AM 64.0180 -7.0950 129° Southeast 494 568 39,000  Level FlightAware
02:44AM 63.9710 -6.9670 130° Southeast 495 570 39,000  Level FlightAware
02:45AM 63.9200 -6.8250 129° Southeast 496 571 39,000  Level FlightAware
02:45AM 63.8650 -6.6770 130° Southeast 497 572 39,000  Level FlightAware
02:46AM 63.8130 -6.5360 130° Southeast 497 572 39,000  Level FlightAware
02:46AM 63.7670 -6.4100 130° Southeast 494 568 39,000  Level FlightAware
02:47AM 63.7140 -6.2680 130° Southeast 493 567 39,000  Level FlightAware
02:47AM 63.6620 -6.1300 130° Southeast 493 567 39,000  Level FlightAware
02:48AM 63.6070 -5.9840 130° Southeast 495 570 39,000  Level FlightAware
02:49AM 63.5570 -5.8530 131° Southeast 495 570 39,000  Level FlightAware
02:49AM 63.5040 -5.7140 130° Southeast 495 570 39,000  Level FlightAware
02:50AM 63.4500 -5.5750 131° Southeast 494 568 39,000  Level FlightAware
02:50AM 63.4030 -5.4520 130° Southeast 492 566 39,000  Level FlightAware
02:51AM 63.3480 -5.3120 131° Southeast 492 566 39,000  Level FlightAware
02:52AM 63.2980 -5.1850 131° Southeast 495 570 39,000  Level FlightAware
02:52AM 63.2430 -5.0460 131° Southeast 497 572 39,000  Level FlightAware
02:53AM 63.1890 -4.9080 131° Southeast 496 571 39,000  Level FlightAware
02:53AM 63.1390 -4.7830 131° Southeast 496 571 39,000  Level FlightAware
02:54AM 63.0860 -4.6530 132° Southeast 497 572 39,000  Level FlightAware
02:54AM 63.0320 -4.5180 131° Southeast 496 571 39,000  Level FlightAware
02:55AM 62.9740 -4.3760 132° Southeast 496 571 39,000  Level FlightAware
02:56AM 62.9280 -4.2620 132° Southeast 494 568 39,000  Level FlightAware
02:56AM 62.8720 -4.1270 132° Southeast 494 568 39,000  Level FlightAware
02:57AM 62.8180 -3.9970 132° Southeast 495 570 39,000  Level FlightAware
02:57AM 62.7650 -3.8700 132° Southeast 497 572 39,000  Level FlightAware
02:58AM 62.7100 -3.7360 132° Southeast 499 574 39,000  Level FlightAware
02:59AM 62.6550 -3.6060 133° Southeast 498 573 39,000  Level FlightAware
02:59AM 62.6040 -3.4860 133° Southeast 497 572 39,000  Level FlightAware
03:00AM 62.5480 -3.3540 133° Southeast 496 571 39,000  Level FlightAware
03:00AM 62.4920 -3.2250 133° Southeast 493 567 39,000  Level FlightAware
03:01AM 62.4370 -3.0950 132° Southeast 492 566 39,000  Level FlightAware
03:01AM 62.3850 -2.9750 133° Southeast 491 565 39,000  Level FlightAware
03:02AM 62.3310 -2.8520 133° Southeast 493 567 39,000  Level FlightAware
03:03AM 62.2760 -2.7260 133° Southeast 493 567 39,000  Level FlightAware
03:03AM 62.2230 -2.6060 133° Southeast 493 567 39,000  Level FlightAware
03:04AM 62.1670 -2.4800 134° Southeast 495 570 39,000  Level FlightAware
03:04AM 62.1080 -2.3480 134° Southeast 497 572 39,000  Level FlightAware
03:05AM 62.0530 -2.2250 134° Southeast 499 574 39,000  Level FlightAware
03:06AM 62.0010 -2.1100 134° Southeast 498 573 39,000  Level FlightAware
03:06AM 61.9440 -1.9830 134° Southeast 492 566 39,000  Level FlightAware
03:07AM 61.8890 -1.8630 134° Southeast 490 564 39,000  Level FlightAware
03:07AM 61.8310 -1.7360 134° Southeast 482 555 39,000  Level FlightAware
03:08AM 61.7850 -1.6360 134° Southeast 478 550 39,000  Level FlightAware
03:08AM 61.7260 -1.5090 134° Southeast 478 550 39,000  Level FlightAware
03:09AM 61.6700 -1.3900 135° Southeast 478 550 39,000  Level FlightAware
03:10AM 61.6190 -1.2810 135° Southeast 478 550 39,000  Level FlightAware
03:10AM 61.5660 -1.1690 135° Southeast 487 560 39,000  Level FlightAware
03:11AM 61.5320 -1.0960 134° Southeast 492 566 39,000  Level FlightAware
03:11AM 61.4500 -0.9240 135° Southeast 492 566 39,000  Level FlightAware
03:12AM 61.3960 -0.8110 135° Southeast 492 566 39,000  Level FlightAware
03:13AM 61.3360 -0.6870 135° Southeast 492 566 39,000  Level FlightAware
03:13AM 61.2880 -0.5860 135° Southeast 493 567 39,000  Level FlightAware
03:14AM 61.2250 -0.4560 135° Southeast 493 567 39,000  Level FlightAware
03:14AM 61.1680 -0.3410 136° Southeast 492 566 39,000  Level FlightAware
03:15AM 61.1170 -0.2360 135° Southeast 492 566 39,000  Level FlightAware
03:16AM 61.0550 -0.1120 136° Southeast 492 566 39,000  Level FlightAware
03:16AM 61.0040 -0.0100 136° Southeast 492 566 39,000  Level FlightAware
03:17AM 60.9420 0.1110 137° Southeast 492 566 39,000  Level FlightAware
03:17AM 60.8870 0.2120 138° Southeast 492 566 39,000  Level FlightAware
03:18AM 60.8230 0.3320 138° Southeast 494 568 39,000  Level FlightAware
03:18AM 60.7640 0.4420 138° Southeast 495 570 39,000  Level FlightAware
03:19AM 60.7090 0.5440 138° Southeast 494 568 39,000  Level FlightAware
03:20AM 60.6430 0.6640 138° Southeast 494 568 39,000  Level FlightAware
03:20AM 60.5890 0.7630 138° Southeast 494 568 39,000  Level FlightAware
03:21AM 60.5250 0.8800 138° Southeast 495 570 39,000  Level FlightAware
03:21AM 60.4660 0.9860 138° Southeast 494 568 39,000  Level FlightAware
03:22AM 60.4100 1.0870 138° Southeast 493 567 39,000  Level FlightAware
03:22AM 60.3490 1.1970 138° Southeast 491 565 39,000  Level FlightAware
03:23AM 60.2910 1.3000 139° Southeast 490 564 39,000  Level FlightAware
03:24AM 60.2310 1.4060 139° Southeast 488 562 39,000  Level FlightAware
03:24AM 60.1720 1.5106 139° Southeast 464 534 39,000  Level FlightAware UK
03:24AM 60.1710 1.5130 139° Southeast 487 560 39,000  Level FlightAware
03:25AM 60.1140 1.6130 139° Southeast 486 559 39,000  Level FlightAware
03:25AM 60.0550 1.7170 139° Southeast 488 562 39,000  Level FlightAware
03:26AM 59.9970 1.8180 139° Southeast 490 564 39,000  Level FlightAware
03:27AM 59.9300 1.9320 140° Southeast 491 565 39,000  Level FlightAware
03:27AM 59.8761 2.0258 140° Southeast 468 539 39,000  Level FlightAware UK
03:27AM 59.8750 2.0290 140° Southeast 492 566 39,000  Level FlightAware
03:28AM 59.8140 2.1326 140° Southeast 466 536 39,000  Level FlightAware UK
03:28AM 59.8120 2.1360 140° Southeast 491 565 39,000  Level FlightAware
03:28AM 59.7560 2.2310 139° Southeast 490 564 39,000  Level FlightAware
03:29AM 59.6898 2.3430 139° Southeast 464 534 39,000  Level FlightAware UK
03:29AM 59.6910 2.3420 139° Southeast 492 566 39,000  Level FlightAware
03:29AM 59.6370 2.4330 140° Southeast 492 566 39,000  Level FlightAware
03:30AM 59.5720 2.5420 140° Southeast 492 566 39,000  Level FlightAware
03:31AM 59.5090 2.6480 139° Southeast 492 566 39,000  Level FlightAware
03:31AM 59.4550 2.7370 140° Southeast 493 567 39,000  Level FlightAware
03:32AM 59.3910 2.8430 140° Southeast 491 565 39,000  Level FlightAware
03:32AM 59.3280 2.9480 140° Southeast 488 562 39,000  Level FlightAware
03:33AM 59.2747 3.0379 140° Southeast 464 534 39,000  Level FlightAware UK
03:33AM 59.2730 3.0380 140° Southeast 479 551 39,000  Level FlightAware
03:34AM 59.2150 3.1320 140° Southeast 479 551 39,000  Level FlightAware
03:34AM 59.1631 3.2189 140° Southeast 466 536 39,000  Level FlightAware UK
03:34AM 59.1560 3.2290 140° Southeast 477 549 39,000  Level FlightAware
03:35AM 59.0921 3.3338 140° Southeast 464 534 39,000  Level FlightAware UK
03:35AM 59.0920 3.3310 140° Southeast 474 545 39,000  Level FlightAware
03:35AM 59.0370 3.4200 140° Southeast 472 543 39,000  Level FlightAware
03:36AM 58.9813 3.5122 140° Southeast 464 534 39,000  Level FlightAware UK
03:36AM 58.9770 3.5170 140° Southeast 470 541 39,000  Level FlightAware
03:36AM 58.9150 3.6150 141° Southeast 470 541 39,000  Level FlightAware
03:37AM 58.8620 3.7000 140° Southeast 471 542 39,000  Level FlightAware
03:38AM 58.8010 3.7960 141° Southeast 472 543 39,000  Level FlightAware
03:38AM 58.7440 3.8850 141° Southeast 472 543 39,000  Level FlightAware
03:39AM 58.6800 3.9860 141° Southeast 474 545 39,000  Level FlightAware
03:39AM 58.6230 4.0750 141° Southeast 475 547 39,000  Level FlightAware
03:40AM 58.5662 4.1673 141° Southeast 466 536 39,000  Level FlightAware UK
03:40AM 58.5650 4.1660 141° Southeast 474 545 39,000  Level FlightAware
03:41AM 58.5052 4.2618 141° Southeast 464 534 39,000  Level FlightAware UK
03:41AM 58.5030 4.2610 141° Southeast 472 543 39,000  Level FlightAware
03:41AM 58.4420 4.3540 141° Southeast 473 544 39,000  Level FlightAware
03:42AM 58.3860 4.4400 141° Southeast 474 545 39,000  Level FlightAware
03:42AM 58.3260 4.5320 141° Southeast 475 547 39,000  Level FlightAware
03:43AM 58.2670 4.6220 141° Southeast 476 548 39,000  Level FlightAware
03:44AM 58.2010 4.7210 142° Southeast 478 550 39,000  Level FlightAware
03:44AM 58.1440 4.8060 142° Southeast 481 554 39,000  Level FlightAware
03:45AM 58.0880 4.8900 142° Southeast 483 556 39,000  Level FlightAware
03:45AM 58.0200 4.9930 141° Southeast 482 555 39,000  Level FlightAware
03:46AM 57.9600 5.0820 142° Southeast 483 556 39,000  Level FlightAware
03:46AM 57.9060 5.1610 142° Southeast 484 557 39,000  Level FlightAware
03:47AM 57.8360 5.2640 142° Southeast 485 558 39,000  Level FlightAware
03:48AM 57.7740 5.3560 142° Southeast 485 558 39,000  Level FlightAware
03:48AM 57.7110 5.4470 142° Southeast 483 556 39,000  Level FlightAware
03:49AM 57.6540 5.5290 142° Southeast 483 556 39,000  Level FlightAware
03:49AM 57.5930 5.6190 142° Southeast 484 557 39,000  Level FlightAware
03:50AM 57.5270 5.7120 143° Southeast 486 559 39,000  Level FlightAware
03:50AM 57.4660 5.8030 141° Southeast 487 560 39,000  Level FlightAware
03:51AM 57.4130 5.8840 141° Southeast 487 560 39,000  Level FlightAware
03:52AM 57.3520 5.9740 141° Southeast 487 560 39,000  Level FlightAware
03:52AM 57.2840 6.0750 141° Southeast 488 562 39,000  Level FlightAware
03:53AM 57.2190 6.1710 141° Southeast 488 562 39,000  Level FlightAware
03:53AM 57.1620 6.2550 141° Southeast 491 565 39,000  Level FlightAware
03:54AM 57.0970 6.3500 142° Southeast 490 564 39,000  Level FlightAware
03:55AM 57.0330 6.4430 142° Southeast 490 564 39,000  Level FlightAware
03:55AM 56.9630 6.5450 142° Southeast 490 564 39,000  Level FlightAware
03:56AM 56.9020 6.6310 142° Southeast 485 558 39,000  Level FlightAware
03:56AM 56.8380 6.7240 142° Southeast 482 555 39,000  Level FlightAware
03:57AM 56.7800 6.8070 142° Southeast 481 554 39,000  Level FlightAware
03:58AM 56.7150 6.8990 142° Southeast 480 552 39,000  Level FlightAware
03:58AM 56.6550 6.9850 142° Southeast 480 552 39,000  Level FlightAware
03:59AM 56.5900 7.0750 143° Southeast 481 554 39,000  Level FlightAware
03:59AM 56.5360 7.1510 142° Southeast 483 556 39,000  Level FlightAware
04:00AM 56.4740 7.2380 142° Southeast 484 557 39,000  Level FlightAware
04:01AM 56.4090 7.3290 142° Southeast 484 557 39,000  Level FlightAware
04:01AM 56.3520 7.4080 142° Southeast 484 557 39,000  Level FlightAware
04:02AM 56.2880 7.4970 142° Southeast 486 559 39,000  Level FlightAware
04:02AM 56.2280 7.5800 142° Southeast 487 560 39,000  Level FlightAware
04:03AM 56.1570 7.6760 143° Southeast 488 562 39,000  Level FlightAware
04:03AM 56.0950 7.7610 143° Southeast 488 562 39,000  Level FlightAware
04:04AM 56.0370 7.8400 143° Southeast 488 562 39,000  Level FlightAware
04:05AM 55.9740 7.9250 143° Southeast 489 563 39,000  Level FlightAware
04:05AM 55.9110 8.0100 143° Southeast 490 564 39,000  Level FlightAware
04:06AM 55.8480 8.0940 143° Southeast 490 564 39,000  Level FlightAware
04:06AM 55.7810 8.1830 143° Southeast 491 565 39,000  Level FlightAware
04:07AM 55.7150 8.2710 143° Southeast 490 564 39,000  Level FlightAware
04:07AM 55.6570 8.3490 143° Southeast 490 564 39,000  Level FlightAware
04:08AM 55.5940 8.4320 143° Southeast 490 564 39,000  Level FlightAware
04:08AM 55.5803 8.4495 144° Southeast 490 564 39,000  Level FlightAware ADS-B (ESMN)
04:09AM 55.4678 8.5969 143° Southeast 489 563 39,000  Level FlightAware ADS-B (ESMN)
04:10AM 55.4128 8.6685 143° Southeast 489 563 39,000  Level FlightAware ADS-B (ESMN)
04:10AM 55.3576 8.7404 144° Southeast 489 563 39,000  Level FlightAware ADS-B (ESMN)
04:11AM 55.3028 8.8115 144° Southeast 487 560 39,000  Level FlightAware ADS-B (ESMN)
04:11AM 55.2310 8.9038 144° Southeast 486 559 39,000  Level FlightAware ADS-B (ESMN)
04:12AM 55.1450 9.0150 144° Southeast 487 560 39,000  Level FlightAware
04:13AM 55.0850 9.0910 144° Southeast 488 562 39,000  Level FlightAware
04:13AM 55.0628 9.1190 144° Southeast 488 562 39,000  Level FlightAware ADS-B (ESMN)
04:14AM 54.9726 9.2334 144° Southeast 490 564 39,000  Level FlightAware ADS-B (ESMN)
04:14AM 54.9110 9.3120 144° Southeast 489 563 39,000  Level FlightAware
04:15AM 54.8521 9.3854 144° Southeast 492 566 39,000  Level FlightAware ADS-B (EDLW / DTM)
04:16AM 54.7820 9.4910 139° Southeast 496 571 39,000  Level FlightAware
04:16AM 54.7180 9.5900 138° Southeast 497 572 39,000  Level FlightAware
04:17AM 54.6580 9.6830 138° Southeast 497 572 39,000  Level FlightAware
04:17AM 54.6046 9.7655 138° Southeast 499 574 39,000  Level FlightAware ADS-B (ESMN)
04:18AM 54.5400 9.8650 138° Southeast 499 574 39,000  Level FlightAware
04:19AM 54.4810 9.9550 138° Southeast 498 573 39,000  Level FlightAware
04:19AM 54.4350 10.0240 139° Southeast 498 573 39,000  Level FlightAware
04:20AM 54.3700 10.1240 138° Southeast 496 571 39,000  Level FlightAware
04:20AM 54.3083 10.2166 139° Southeast 495 570 39,000  Level FlightAware ADS-B (ESMN)
04:21AM 54.2580 10.2920 139° Southeast 495 570 39,000  Level FlightAware
04:21AM 54.1900 10.3940 139° Southeast 497 572 39,000  Level FlightAware
04:22AM 54.1290 10.4840 139° Southeast 498 573 39,000  Level FlightAware
04:22AM 54.0730 10.5680 139° Southeast 496 571 39,000  Level FlightAware
04:23AM 54.0100 10.6560 141° Southeast 493 567 39,000  Level FlightAware
04:24AM 53.9366 10.7481 144° Southeast 493 567 39,000 -180 Level FlightAware ADS-B (EDLW / DTM)
04:24AM 53.8820 10.8170 143° Southeast 490 564 38,800 -960 Descending FlightAware
04:24AM 53.8643 10.8384 145° Southeast 493 567 38,400 -2,340 Descending FlightAware ADS-B (ESMN)
04:25AM 53.7510 10.9770 144° Southeast 500 575 36,100 -1,560 Descending FlightAware
04:26AM 53.6850 11.0560 145° Southeast 499 574 36,000 -840 Descending FlightAware
04:27AM 53.6220 11.1300 145° Southeast 503 579 35,200 -3,900 Descending FlightAware
04:27AM 53.5500 11.2150 145° Southeast 510 587 31,400 -5,880 Descending FlightAware
04:28AM 53.4800 11.2960 145° Southeast 505 581 28,100 -4,980 Descending FlightAware
04:28AM 53.4180 11.3680 145° Southeast 490 564 25,700 -2,760 Descending FlightAware
04:29AM 53.3550 11.4430 145° Southeast 459 528 25,000 -780 Descending FlightAware
04:29AM 53.2940 11.5140 145° Southeast 457 526 24,800 -1,920 Descending FlightAware
04:30AM 53.2500 11.5820 137° Southeast 453 521 23,000 -5,100 Descending FlightAware
04:30AM 53.2040 11.6650 133° Southeast 456 525 19,700 -5,700 Descending FlightAware
04:31AM 53.1540 11.7560 132° Southeast 440 506 16,500 -3,360 Descending FlightAware
04:32AM 53.1090 11.8360 133° Southeast 416 479 15,600 -2,280 Descending FlightAware
04:32AM 53.0570 11.9260 134° Southeast 420 483 13,800 -2,520 Descending FlightAware
04:33AM 53.0140 12.0000 134° Southeast 408 470 12,800 -1,320 Descending FlightAware
04:33AM 52.9640 12.0840 135° Southeast 379 436 12,300 -720 Descending FlightAware
04:34AM 52.9280 12.1460 134° Southeast 356 410 12,000 -720 Descending FlightAware
04:35AM 52.8880 12.2120 135° Southeast 340 391 11,500 -1,140 Descending FlightAware
04:35AM 52.8520 12.2740 134° Southeast 338 389 10,700 -1,260 Descending FlightAware
04:36AM 52.8150 12.3350 135° Southeast 327 376 10,100 -720 Descending FlightAware
04:36AM 52.7840 12.3850 136° Southeast 328 377 10,000 -660 Descending FlightAware
04:36AM 52.7640 12.4190 134° Southeast 327 376 9,600 -1,380 Descending FlightAware
04:37AM 52.7470 12.4480 134° Southeast 325 374 9,200 -1,200 Descending FlightAware
04:37AM 52.7210 12.4900 136° Southeast 316 364 8,800 -1,020 Descending FlightAware
04:37AM 52.7050 12.5180 133° Southeast 311 358 8,500 -1,320 Descending FlightAware
04:38AM 52.6890 12.5440 135° Southeast 309 356 8,100 -1,620 Descending FlightAware
04:38AM 52.6650 12.5840 135° Southeast 304 350 7,500 -1,260 Descending FlightAware
04:38AM 52.6450 12.6160 136° Southeast 284 327 7,200 -960 Descending FlightAware
04:39AM 52.6250 12.6510 133° Southeast 256 295 6,800 -1,260 Descending FlightAware
04:39AM 52.6090 12.6770 135° Southeast 246 283 6,300 -1,680 Descending FlightAware
04:40AM 52.5930 12.7040 134° Southeast 235 270 5,700 -1,800 Descending FlightAware
04:40AM 52.5780 12.7300 134° Southeast 232 267 5,100 -1,920 Descending FlightAware
04:40AM 52.5610 12.7580 135° Southeast 227 261 4,300 -1,860 Descending FlightAware
04:41AM 52.5460 12.7860 131° Southeast 227 261 3,700 -1,740 Descending FlightAware
04:41AM 52.5410 12.8030 116° Southeast 228 262 3,400 -1,500 Descending FlightAware
04:41AM 52.5350 12.8170 125° Southeast 229 264 3,200 -1,200 Descending FlightAware
04:41AM 52.5250 12.8410 124° Southeast 226 260 2,900 -660 Descending FlightAware
04:41AM 52.5230 12.8600 100° East 219 252 2,900 -180 Level FlightAware
04:42AM 52.5230 12.9180 90° East 214 246 2,800 -120 Descending FlightAware
04:42AM 52.5260 12.9500 81° East 217 250 2,800  Level FlightAware
04:43AM 52.5300 12.9830 79° East 216 249 2,800  Level FlightAware
04:43AM 52.5330 13.0150 81° East 216 249 2,800 -360 Level FlightAware
04:43AM 52.5360 13.0460 81° East 210 242 2,600 -960 Descending FlightAware
04:44AM 52.5390 13.0770 81° East 203 234 2,200 -1,200 Descending FlightAware
04:44AM 52.5410 13.1000 82° East 187 215 1,900 -840 Descending FlightAware
04:44AM 52.5430 13.1250 82° East 167 192 1,700 -780 Descending FlightAware
04:45AM 52.5450 13.1500 82° East 154 177 1,400 -960 Descending FlightAware
04:45AM 52.5470 13.1720 81° East 142 163 1,100 -900 Descending FlightAware
04:45AM 52.5500 13.1920 76° East 132 152 800 -720 Descending FlightAware
04:46AM 52.5520 13.2110 80° East 129 148 600 -660 Descending FlightAware
04:46AM 52.5540 13.2310 81° East 133 153 400 -780 Descending FlightAware
04:46AM 52.5560 13.2470 78° East 132 152 200 -840 Descending FlightAware
04:47AM 52.5580 13.2650 80° East 130 150 -600 Descending FlightAware
04:47AM 52.5590 13.2840 85° East 100 115  Level FlightAware